sensor_id;sensor_type;location;lat;lon;timestamp;pressure;altitude;pressure_sealevel;temperature;humidity
21574;BME280;10948;48.706;9.258;2024-02-26T00:01:20;95930.16;;;7.28;96.86
21574;BME280;10948;48.706;9.258;2024-02-26T00:03:46;95921.56;;;7.27;97.04
21574;BME280;10948;48.706;9.258;2024-02-26T00:06:12;95925.06;;;7.48;95.97
21574;BME280;10948;48.706;9.258;2024-02-26T00:08:37;95924.72;;;7.64;96.23
21574;BME280;10948;48.706;9.258;2024-02-26T00:11:02;95911.91;;;7.51;95.33
21574;BME280;10948;48.706;9.258;2024-02-26T00:13:28;95912.03;;;7.28;96.68
21574;BME280;10948;48.706;9.258;2024-02-26T00:15:53;95913.81;;;7.38;95.87
21574;BME280;10948;48.706;9.258;2024-02-26T00:18:18;95909.69;;;7.25;95.81
21574;BME280;10948;48.706;9.258;2024-02-26T00:20:44;95909.44;;;7.17;96.18
21574;BME280;10948;48.706;9.258;2024-02-26T00:23:09;95920.38;;;7.20;96.67
21574;BME280;10948;48.706;9.258;2024-02-26T00:25:34;95916.63;;;7.24;97.35
21574;BME280;10948;48.706;9.258;2024-02-26T00:28:01;95919.81;;;7.28;95.90
21574;BME280;10948;48.706;9.258;2024-02-26T00:30:26;95920.81;;;7.03;98.25
21574;BME280;10948;48.706;9.258;2024-02-26T00:32:51;95913.44;;;7.10;99.86
21574;BME280;10948;48.706;9.258;2024-02-26T00:35:16;95912.84;;;6.84;100.00
21574;BME280;10948;48.706;9.258;2024-02-26T00:37:45;95905.53;;;6.89;100.00
21574;BME280;10948;48.706;9.258;2024-02-26T00:40:10;95909.97;;;6.76;100.00
21574;BME280;10948;48.706;9.258;2024-02-26T00:42:36;95908.03;;;7.02;100.00
21574;BME280;10948;48.706;9.258;2024-02-26T00:45:01;95898.72;;;6.88;100.00
21574;BME280;10948;48.706;9.258;2024-02-26T00:47:26;95896.84;;;6.90;100.00
21574;BME280;10948;48.706;9.258;2024-02-26T00:49:51;95906.25;;;7.02;100.00
21574;BME280;10948;48.706;9.258;2024-02-26T00:52:16;95899.91;;;6.95;100.00
21574;BME280;10948;48.706;9.258;2024-02-26T00:54:42;95906.47;;;6.88;100.00
21574;BME280;10948;48.706;9.258;2024-02-26T00:57:07;95909.31;;;7.07;100.00
21574;BME280;10948;48.706;9.258;2024-02-26T00:59:32;95895.31;;;6.99;100.00
21574;BME280;10948;48.706;9.258;2024-02-26T01:01:57;95894.28;;;7.01;100.00
21574;BME280;10948;48.706;9.258;2024-02-26T01:04:24;95883.22;;;7.10;100.00
21574;BME280;10948;48.706;9.258;2024-02-26T01:06:50;95876.66;;;7.06;100.00
21574;BME280;10948;48.706;9.258;2024-02-26T01:09:15;95910.84;;;6.99;100.00
21574;BME280;10948;48.706;9.258;2024-02-26T01:11:42;95891.19;;;6.96;100.00
21574;BME280;10948;48.706;9.258;2024-02-26T01:14:07;95886.63;;;7.00;100.00
21574;BME280;10948;48.706;9.258;2024-02-26T01:16:32;95865.09;;;7.10;100.00
21574;BME280;10948;48.706;9.258;2024-02-26T01:18:57;95886.53;;;7.12;100.00
21574;BME280;10948;48.706;9.258;2024-02-26T01:21:22;95889.56;;;7.17;100.00
21574;BME280;10948;48.706;9.258;2024-02-26T01:23:48;95890.25;;;6.86;100.00
21574;BME280;10948;48.706;9.258;2024-02-26T01:26:13;95902.03;;;7.12;100.00
21574;BME280;10948;48.706;9.258;2024-02-26T01:28:38;95899.19;;;6.82;100.00
21574;BME280;10948;48.706;9.258;2024-02-26T01:31:03;95888.16;;;7.02;100.00
21574;BME280;10948;48.706;9.258;2024-02-26T01:33:31;95885.81;;;6.99;100.00
21574;BME280;10948;48.706;9.258;2024-02-26T01:35:57;95883.81;;;7.03;100.00
21574;BME280;10948;48.706;9.258;2024-02-26T01:38:22;95899.91;;;6.95;100.00
21574;BME280;10948;48.706;9.258;2024-02-26T01:40:47;95905.06;;;6.95;100.00
21574;BME280;10948;48.706;9.258;2024-02-26T01:43:12;95897.78;;;7.00;100.00
21574;BME280;10948;48.706;9.258;2024-02-26T01:45:37;95916.13;;;6.86;100.00
21574;BME280;10948;48.706;9.258;2024-02-26T01:48:03;95903.69;;;6.91;100.00
21574;BME280;10948;48.706;9.258;2024-02-26T01:50:28;95907.09;;;7.03;100.00
21574;BME280;10948;48.706;9.258;2024-02-26T01:52:53;95916.84;;;6.99;100.00
21574;BME280;10948;48.706;9.258;2024-02-26T01:55:19;95923.69;;;7.11;100.00
21574;BME280;10948;48.706;9.258;2024-02-26T01:57:45;95926.34;;;6.88;100.00
21574;BME280;10948;48.706;9.258;2024-02-26T02:00:12;95926.31;;;6.77;100.00
21574;BME280;10948;48.706;9.258;2024-02-26T02:02:39;95935.63;;;7.01;100.00
21574;BME280;10948;48.706;9.258;2024-02-26T02:05:06;95936.00;;;7.08;100.00
21574;BME280;10948;48.706;9.258;2024-02-26T02:07:32;95941.50;;;6.92;100.00
21574;BME280;10948;48.706;9.258;2024-02-26T02:09:58;95931.38;;;6.89;100.00
21574;BME280;10948;48.706;9.258;2024-02-26T02:12:23;95935.38;;;6.82;100.00
21574;BME280;10948;48.706;9.258;2024-02-26T02:14:49;95939.38;;;6.97;100.00
21574;BME280;10948;48.706;9.258;2024-02-26T02:17:14;95941.88;;;6.99;100.00
21574;BME280;10948;48.706;9.258;2024-02-26T02:19:40;95939.63;;;6.94;100.00
21574;BME280;10948;48.706;9.258;2024-02-26T02:22:05;95945.41;;;7.09;100.00
21574;BME280;10948;48.706;9.258;2024-02-26T02:24:30;95947.53;;;7.15;100.00
21574;BME280;10948;48.706;9.258;2024-02-26T02:26:56;95935.44;;;7.26;100.00
21574;BME280;10948;48.706;9.258;2024-02-26T02:29:21;95944.94;;;7.26;100.00
21574;BME280;10948;48.706;9.258;2024-02-26T02:31:47;95939.44;;;7.19;100.00
21574;BME280;10948;48.706;9.258;2024-02-26T02:34:12;95917.78;;;7.20;100.00
21574;BME280;10948;48.706;9.258;2024-02-26T02:36:53;95916.97;;;7.31;100.00
21574;BME280;10948;48.706;9.258;2024-02-26T02:39:19;95927.19;;;7.43;99.69
21574;BME280;10948;48.706;9.258;2024-02-26T02:41:44;95937.09;;;7.38;99.29
21574;BME280;10948;48.706;9.258;2024-02-26T02:44:09;95934.38;;;7.29;98.65
21574;BME280;10948;48.706;9.258;2024-02-26T02:46:34;95926.72;;;7.27;97.79
21574;BME280;10948;48.706;9.258;2024-02-26T02:49:00;95951.63;;;7.17;99.13
21574;BME280;10948;48.706;9.258;2024-02-26T02:51:25;95949.91;;;7.29;100.00
21574;BME280;10948;48.706;9.258;2024-02-26T02:53:50;95943.75;;;7.19;99.68
21574;BME280;10948;48.706;9.258;2024-02-26T02:56:16;95947.19;;;7.30;98.30
21574;BME280;10948;48.706;9.258;2024-02-26T02:58:41;95934.50;;;7.38;97.52
21574;BME280;10948;48.706;9.258;2024-02-26T03:01:06;95938.38;;;7.55;96.13
21574;BME280;10948;48.706;9.258;2024-02-26T03:03:31;95933.53;;;7.50;95.91
21574;BME280;10948;48.706;9.258;2024-02-26T03:05:57;95929.53;;;7.57;95.32
21574;BME280;10948;48.706;9.258;2024-02-26T03:08:22;95922.72;;;7.34;97.37
21574;BME280;10948;48.706;9.258;2024-02-26T03:10:47;95922.50;;;7.26;99.60
21574;BME280;10948;48.706;9.258;2024-02-26T03:13:12;95911.34;;;7.15;100.00
21574;BME280;10948;48.706;9.258;2024-02-26T03:15:38;95922.72;;;7.23;100.00
21574;BME280;10948;48.706;9.258;2024-02-26T03:18:03;95924.16;;;7.38;100.00
21574;BME280;10948;48.706;9.258;2024-02-26T03:20:29;95923.44;;;7.36;100.00
21574;BME280;10948;48.706;9.258;2024-02-26T03:22:54;95931.66;;;7.41;100.00
21574;BME280;10948;48.706;9.258;2024-02-26T03:25:19;95939.09;;;7.35;99.13
21574;BME280;10948;48.706;9.258;2024-02-26T03:27:44;95935.66;;;7.34;98.42
21574;BME280;10948;48.706;9.258;2024-02-26T03:30:10;95937.31;;;7.46;95.44
21574;BME280;10948;48.706;9.258;2024-02-26T03:32:35;95935.44;;;7.48;93.92
21574;BME280;10948;48.706;9.258;2024-02-26T03:35:00;95929.19;;;7.62;92.08
21574;BME280;10948;48.706;9.258;2024-02-26T03:37:26;95919.44;;;7.54;90.88
21574;BME280;10948;48.706;9.258;2024-02-26T03:39:51;95912.34;;;7.56;91.45
21574;BME280;10948;48.706;9.258;2024-02-26T03:42:16;95909.06;;;7.43;93.58
21574;BME280;10948;48.706;9.258;2024-02-26T03:44:41;95907.22;;;7.45;94.37
21574;BME280;10948;48.706;9.258;2024-02-26T03:47:07;95904.25;;;7.61;92.00
21574;BME280;10948;48.706;9.258;2024-02-26T03:49:32;95895.41;;;7.63;90.35
21574;BME280;10948;48.706;9.258;2024-02-26T03:51:57;95895.19;;;7.55;89.94
21574;BME280;10948;48.706;9.258;2024-02-26T03:54:22;95896.00;;;7.67;89.15
21574;BME280;10948;48.706;9.258;2024-02-26T03:56:48;95901.53;;;7.62;89.09
21574;BME280;10948;48.706;9.258;2024-02-26T03:59:13;95911.50;;;7.78;88.76
21574;BME280;10948;48.706;9.258;2024-02-26T04:01:38;95910.94;;;7.74;88.32
21574;BME280;10948;48.706;9.258;2024-02-26T04:04:03;95916.59;;;7.68;88.84
21574;BME280;10948;48.706;9.258;2024-02-26T04:06:28;95899.66;;;7.53;88.01
21574;BME280;10948;48.706;9.258;2024-02-26T04:08:54;95884.63;;;7.58;88.17
21574;BME280;10948;48.706;9.258;2024-02-26T04:11:19;95877.91;;;7.56;88.67
21574;BME280;10948;48.706;9.258;2024-02-26T04:13:45;95876.13;;;7.56;89.48
21574;BME280;10948;48.706;9.258;2024-02-26T04:16:17;95881.66;;;7.63;89.79
21574;BME280;10948;48.706;9.258;2024-02-26T04:18:43;95872.84;;;7.54;90.30
21574;BME280;10948;48.706;9.258;2024-02-26T04:21:08;95891.69;;;7.34;91.52
21574;BME280;10948;48.706;9.258;2024-02-26T04:23:33;95899.44;;;7.23;94.03
21574;BME280;10948;48.706;9.258;2024-02-26T04:25:58;95914.63;;;7.39;94.81
21574;BME280;10948;48.706;9.258;2024-02-26T04:28:24;95917.81;;;7.31;95.75
21574;BME280;10948;48.706;9.258;2024-02-26T04:30:54;95920.84;;;7.36;95.51
21574;BME280;10948;48.706;9.258;2024-02-26T04:33:19;95929.78;;;7.32;94.48
21574;BME280;10948;48.706;9.258;2024-02-26T04:35:44;95935.22;;;7.51;93.67
21574;BME280;10948;48.706;9.258;2024-02-26T04:38:09;95928.63;;;7.25;94.98
21574;BME280;10948;48.706;9.258;2024-02-26T04:40:35;95912.13;;;7.48;93.62
21574;BME280;10948;48.706;9.258;2024-02-26T04:43:00;95912.84;;;7.61;91.92
21574;BME280;10948;48.706;9.258;2024-02-26T04:45:25;95926.00;;;7.36;92.15
21574;BME280;10948;48.706;9.258;2024-02-26T04:47:50;95929.44;;;7.48;92.18
21574;BME280;10948;48.706;9.258;2024-02-26T04:50:15;95915.41;;;7.50;91.96
21574;BME280;10948;48.706;9.258;2024-02-26T04:52:41;95913.91;;;7.48;91.16
21574;BME280;10948;48.706;9.258;2024-02-26T04:55:08;95900.72;;;7.62;90.49
21574;BME280;10948;48.706;9.258;2024-02-26T04:57:33;95909.50;;;7.70;90.59
21574;BME280;10948;48.706;9.258;2024-02-26T04:59:58;95911.19;;;7.49;91.02
21574;BME280;10948;48.706;9.258;2024-02-26T05:02:23;95907.31;;;7.44;92.89
21574;BME280;10948;48.706;9.258;2024-02-26T05:04:49;95909.44;;;7.39;93.22
21574;BME280;10948;48.706;9.258;2024-02-26T05:07:14;95906.25;;;7.35;94.91
21574;BME280;10948;48.706;9.258;2024-02-26T05:09:42;95899.19;;;7.48;93.05
21574;BME280;10948;48.706;9.258;2024-02-26T05:12:08;95898.97;;;7.51;93.18
21574;BME280;10948;48.706;9.258;2024-02-26T05:14:34;95903.44;;;7.60;92.71
21574;BME280;10948;48.706;9.258;2024-02-26T05:16:59;95905.91;;;7.51;90.08
21574;BME280;10948;48.706;9.258;2024-02-26T05:19:24;95906.81;;;7.72;90.81
21574;BME280;10948;48.706;9.258;2024-02-26T05:21:49;95913.31;;;7.66;90.51
21574;BME280;10948;48.706;9.258;2024-02-26T05:24:15;95907.19;;;7.56;91.83
21574;BME280;10948;48.706;9.258;2024-02-26T05:26:42;95912.84;;;7.50;91.70
21574;BME280;10948;48.706;9.258;2024-02-26T05:29:07;95916.84;;;7.43;93.27
21574;BME280;10948;48.706;9.258;2024-02-26T05:31:32;95911.19;;;7.49;94.66
21574;BME280;10948;48.706;9.258;2024-02-26T05:33:57;95906.50;;;7.43;95.99
21574;BME280;10948;48.706;9.258;2024-02-26T05:36:23;95920.38;;;7.42;97.19
21574;BME280;10948;48.706;9.258;2024-02-26T05:38:48;95936.84;;;7.52;97.02
21574;BME280;10948;48.706;9.258;2024-02-26T05:41:17;95953.31;;;7.51;95.25
21574;BME280;10948;48.706;9.258;2024-02-26T05:43:48;95952.47;;;7.40;97.98
21574;BME280;10948;48.706;9.258;2024-02-26T05:46:13;95961.91;;;7.41;100.00
21574;BME280;10948;48.706;9.258;2024-02-26T05:48:41;95960.25;;;7.29;100.00
21574;BME280;10948;48.706;9.258;2024-02-26T05:51:06;95967.66;;;7.33;100.00
21574;BME280;10948;48.706;9.258;2024-02-26T05:53:31;95957.53;;;7.41;100.00
21574;BME280;10948;48.706;9.258;2024-02-26T05:55:56;95946.97;;;7.44;100.00
21574;BME280;10948;48.706;9.258;2024-02-26T05:58:21;95942.97;;;7.51;100.00
21574;BME280;10948;48.706;9.258;2024-02-26T06:00:47;95934.72;;;7.35;100.00
21574;BME280;10948;48.706;9.258;2024-02-26T06:03:12;95949.06;;;7.50;100.00
21574;BME280;10948;48.706;9.258;2024-02-26T06:05:37;95954.03;;;7.31;100.00
21574;BME280;10948;48.706;9.258;2024-02-26T06:08:02;95956.34;;;7.23;100.00
21574;BME280;10948;48.706;9.258;2024-02-26T06:10:28;95957.28;;;7.22;100.00
21574;BME280;10948;48.706;9.258;2024-02-26T06:12:53;95956.22;;;7.03;100.00
21574;BME280;10948;48.706;9.258;2024-02-26T06:15:18;95958.22;;;6.99;100.00
21574;BME280;10948;48.706;9.258;2024-02-26T06:17:43;95967.63;;;7.00;100.00
21574;BME280;10948;48.706;9.258;2024-02-26T06:20:09;95967.72;;;6.99;100.00
21574;BME280;10948;48.706;9.258;2024-02-26T06:22:38;95967.84;;;7.08;100.00
21574;BME280;10948;48.706;9.258;2024-02-26T06:25:03;95971.88;;;7.23;100.00
21574;BME280;10948;48.706;9.258;2024-02-26T06:27:28;95964.56;;;7.06;100.00
21574;BME280;10948;48.706;9.258;2024-02-26T06:29:54;95958.69;;;7.15;100.00
21574;BME280;10948;48.706;9.258;2024-02-26T06:32:19;95964.31;;;7.09;100.00
21574;BME280;10948;48.706;9.258;2024-02-26T06:34:44;95970.69;;;7.05;100.00
21574;BME280;10948;48.706;9.258;2024-02-26T06:37:09;95968.09;;;7.16;100.00
21574;BME280;10948;48.706;9.258;2024-02-26T06:39:34;95987.16;;;7.37;100.00
21574;BME280;10948;48.706;9.258;2024-02-26T06:42:00;95989.09;;;7.01;100.00
21574;BME280;10948;48.706;9.258;2024-02-26T06:44:26;95991.34;;;6.94;100.00
21574;BME280;10948;48.706;9.258;2024-02-26T06:46:56;95998.16;;;6.95;100.00
21574;BME280;10948;48.706;9.258;2024-02-26T06:49:21;95997.50;;;7.04;100.00
21574;BME280;10948;48.706;9.258;2024-02-26T06:51:47;96000.97;;;7.03;100.00
21574;BME280;10948;48.706;9.258;2024-02-26T06:54:12;96004.41;;;7.04;100.00
21574;BME280;10948;48.706;9.258;2024-02-26T06:56:37;96015.34;;;7.07;100.00
21574;BME280;10948;48.706;9.258;2024-02-26T06:59:02;96021.59;;;7.16;100.00
21574;BME280;10948;48.706;9.258;2024-02-26T07:01:28;96022.41;;;7.05;100.00
21574;BME280;10948;48.706;9.258;2024-02-26T07:03:53;96029.47;;;7.14;100.00
21574;BME280;10948;48.706;9.258;2024-02-26T07:06:18;96040.56;;;7.27;100.00
21574;BME280;10948;48.706;9.258;2024-02-26T07:08:44;96039.56;;;7.17;100.00
21574;BME280;10948;48.706;9.258;2024-02-26T07:11:10;96043.75;;;7.42;100.00
21574;BME280;10948;48.706;9.258;2024-02-26T07:13:35;96041.03;;;7.43;100.00
21574;BME280;10948;48.706;9.258;2024-02-26T07:16:01;96045.09;;;7.58;100.00
21574;BME280;10948;48.706;9.258;2024-02-26T07:18:27;96047.88;;;7.55;100.00
21574;BME280;10948;48.706;9.258;2024-02-26T07:20:52;96041.75;;;7.56;100.00
21574;BME280;10948;48.706;9.258;2024-02-26T07:23:18;96039.31;;;7.77;100.00
21574;BME280;10948;48.706;9.258;2024-02-26T07:25:43;96046.00;;;7.68;100.00
21574;BME280;10948;48.706;9.258;2024-02-26T07:28:09;96046.84;;;7.69;100.00
21574;BME280;10948;48.706;9.258;2024-02-26T07:30:34;96047.66;;;7.58;100.00
21574;BME280;10948;48.706;9.258;2024-02-26T07:33:00;96055.09;;;7.63;100.00
21574;BME280;10948;48.706;9.258;2024-02-26T07:35:25;96053.75;;;7.57;100.00
21574;BME280;10948;48.706;9.258;2024-02-26T07:37:52;96060.16;;;7.64;100.00
21574;BME280;10948;48.706;9.258;2024-02-26T07:40:18;96067.66;;;7.67;100.00
21574;BME280;10948;48.706;9.258;2024-02-26T07:42:44;96065.34;;;7.86;100.00
21574;BME280;10948;48.706;9.258;2024-02-26T07:45:09;96058.00;;;7.69;100.00
21574;BME280;10948;48.706;9.258;2024-02-26T07:47:34;96072.63;;;7.92;100.00
21574;BME280;10948;48.706;9.258;2024-02-26T07:50:06;96062.38;;;7.91;100.00
21574;BME280;10948;48.706;9.258;2024-02-26T07:52:31;96069.09;;;7.93;100.00
21574;BME280;10948;48.706;9.258;2024-02-26T07:54:56;96069.09;;;8.04;100.00
21574;BME280;10948;48.706;9.258;2024-02-26T07:57:22;96074.63;;;8.11;100.00
21574;BME280;10948;48.706;9.258;2024-02-26T07:59:47;96069.47;;;8.22;100.00
21574;BME280;10948;48.706;9.258;2024-02-26T08:02:14;96070.72;;;8.16;100.00
21574;BME280;10948;48.706;9.258;2024-02-26T08:04:41;96070.28;;;8.33;100.00
21574;BME280;10948;48.706;9.258;2024-02-26T08:07:07;96078.50;;;8.16;100.00
21574;BME280;10948;48.706;9.258;2024-02-26T08:09:32;96083.47;;;8.41;100.00
21574;BME280;10948;48.706;9.258;2024-02-26T08:11:58;96085.84;;;8.22;100.00
21574;BME280;10948;48.706;9.258;2024-02-26T08:14:23;96074.88;;;8.30;100.00
21574;BME280;10948;48.706;9.258;2024-02-26T08:16:49;96071.69;;;8.37;100.00
21574;BME280;10948;48.706;9.258;2024-02-26T08:19:14;96070.28;;;8.33;100.00
21574;BME280;10948;48.706;9.258;2024-02-26T08:21:41;96068.59;;;8.43;100.00
21574;BME280;10948;48.706;9.258;2024-02-26T08:24:06;96059.88;;;8.55;100.00
21574;BME280;10948;48.706;9.258;2024-02-26T08:26:31;96066.47;;;8.59;97.92
21574;BME280;10948;48.706;9.258;2024-02-26T08:28:57;96066.69;;;8.56;98.10
21574;BME280;10948;48.706;9.258;2024-02-26T08:31:23;96062.44;;;8.66;96.25
21574;BME280;10948;48.706;9.258;2024-02-26T08:33:49;96056.75;;;8.72;95.21
21574;BME280;10948;48.706;9.258;2024-02-26T08:36:14;96058.88;;;8.78;91.91
21574;BME280;10948;48.706;9.258;2024-02-26T08:38:39;96062.63;;;8.85;90.86
21574;BME280;10948;48.706;9.258;2024-02-26T08:41:04;96063.13;;;9.00;89.85
21574;BME280;10948;48.706;9.258;2024-02-26T08:43:30;96068.47;;;8.98;88.48
21574;BME280;10948;48.706;9.258;2024-02-26T08:45:56;96065.75;;;9.20;87.10
21574;BME280;10948;48.706;9.258;2024-02-26T08:48:23;96063.94;;;9.11;84.63
21574;BME280;10948;48.706;9.258;2024-02-26T08:50:49;96063.66;;;9.14;83.75
21574;BME280;10948;48.706;9.258;2024-02-26T08:53:15;96069.69;;;9.15;84.65
21574;BME280;10948;48.706;9.258;2024-02-26T08:55:40;96063.16;;;9.20;84.27
21574;BME280;10948;48.706;9.258;2024-02-26T08:58:05;96060.25;;;9.34;83.27
21574;BME280;10948;48.706;9.258;2024-02-26T09:00:31;96053.03;;;9.58;83.80
21574;BME280;10948;48.706;9.258;2024-02-26T09:02:57;96057.09;;;9.51;82.69
21574;BME280;10948;48.706;9.258;2024-02-26T09:05:22;96062.66;;;9.47;83.17
21574;BME280;10948;48.706;9.258;2024-02-26T09:07:48;96053.28;;;9.55;83.35
21574;BME280;10948;48.706;9.258;2024-02-26T09:10:13;96056.28;;;9.51;82.95
21574;BME280;10948;48.706;9.258;2024-02-26T09:12:38;96059.69;;;9.51;82.07
21574;BME280;10948;48.706;9.258;2024-02-26T09:15:05;96057.28;;;9.59;82.27
21574;BME280;10948;48.706;9.258;2024-02-26T09:17:31;96059.88;;;9.59;82.09
21574;BME280;10948;48.706;9.258;2024-02-26T09:19:56;96055.31;;;9.72;81.20
21574;BME280;10948;48.706;9.258;2024-02-26T09:22:21;96052.53;;;9.64;79.83
21574;BME280;10948;48.706;9.258;2024-02-26T09:24:47;96057.50;;;9.77;79.46
21574;BME280;10948;48.706;9.258;2024-02-26T09:27:14;96070.28;;;9.59;79.77
21574;BME280;10948;48.706;9.258;2024-02-26T09:29:39;96071.69;;;9.73;78.97
21574;BME280;10948;48.706;9.258;2024-02-26T09:32:05;96069.75;;;9.65;79.67
21574;BME280;10948;48.706;9.258;2024-02-26T09:34:30;96070.06;;;9.72;79.92
21574;BME280;10948;48.706;9.258;2024-02-26T09:36:55;96076.72;;;9.85;79.09
21574;BME280;10948;48.706;9.258;2024-02-26T09:39:21;96072.41;;;9.75;78.33
21574;BME280;10948;48.706;9.258;2024-02-26T09:41:47;96062.44;;;9.80;78.52
21574;BME280;10948;48.706;9.258;2024-02-26T09:44:14;96061.97;;;9.65;78.87
21574;BME280;10948;48.706;9.258;2024-02-26T09:46:42;96078.88;;;9.60;79.09
21574;BME280;10948;48.706;9.258;2024-02-26T09:49:08;96088.63;;;9.67;79.22
21574;BME280;10948;48.706;9.258;2024-02-26T09:51:33;96087.84;;;9.76;79.96
21574;BME280;10948;48.706;9.258;2024-02-26T09:53:59;96091.41;;;9.96;79.83
21574;BME280;10948;48.706;9.258;2024-02-26T09:56:25;96094.25;;;10.62;78.88
21574;BME280;10948;48.706;9.258;2024-02-26T09:58:52;96092.03;;;10.48;77.65
21574;BME280;10948;48.706;9.258;2024-02-26T10:01:19;96086.41;;;11.20;75.45
21574;BME280;10948;48.706;9.258;2024-02-26T10:03:46;96079.81;;;11.26;73.63
21574;BME280;10948;48.706;9.258;2024-02-26T10:06:13;96084.19;;;11.16;73.97
21574;BME280;10948;48.706;9.258;2024-02-26T10:08:39;96090.13;;;11.18;72.90
21574;BME280;10948;48.706;9.258;2024-02-26T10:11:05;96085.31;;;11.23;71.21
21574;BME280;10948;48.706;9.258;2024-02-26T10:13:31;96100.94;;;11.70;70.27
21574;BME280;10948;48.706;9.258;2024-02-26T10:15:57;96098.94;;;12.01;68.57
21574;BME280;10948;48.706;9.258;2024-02-26T10:18:22;96106.66;;;11.93;67.69
21574;BME280;10948;48.706;9.258;2024-02-26T10:21:00;96111.88;;;11.55;67.66
21574;BME280;10948;48.706;9.258;2024-02-26T10:23:28;96125.47;;;11.87;69.25
21574;BME280;10948;48.706;9.258;2024-02-26T10:25:54;96118.16;;;12.00;69.13
21574;BME280;10948;48.706;9.258;2024-02-26T10:28:20;96110.94;;;12.30;69.52
21574;BME280;10948;48.706;9.258;2024-02-26T10:30:46;96114.69;;;12.45;68.92
21574;BME280;10948;48.706;9.258;2024-02-26T10:33:12;96110.31;;;12.46;67.67
21574;BME280;10948;48.706;9.258;2024-02-26T10:35:38;96092.50;;;12.68;65.40
21574;BME280;10948;48.706;9.258;2024-02-26T10:38:05;96090.59;;;14.44;64.07
21574;BME280;10948;48.706;9.258;2024-02-26T10:40:31;96085.09;;;14.63;60.72
21574;BME280;10948;48.706;9.258;2024-02-26T10:42:57;96090.28;;;13.00;60.05
21574;BME280;10948;48.706;9.258;2024-02-26T10:45:23;96091.09;;;12.47;61.53
21574;BME280;10948;48.706;9.258;2024-02-26T10:47:48;96094.44;;;12.66;61.77
21574;BME280;10948;48.706;9.258;2024-02-26T10:50:13;96104.84;;;12.93;60.67
21574;BME280;10948;48.706;9.258;2024-02-26T10:52:42;96104.44;;;12.98;60.44
21574;BME280;10948;48.706;9.258;2024-02-26T10:55:07;96104.25;;;13.09;60.78
21574;BME280;10948;48.706;9.258;2024-02-26T10:57:36;96099.50;;;12.95;60.85
21574;BME280;10948;48.706;9.258;2024-02-26T11:00:04;96107.59;;;12.92;60.63
21574;BME280;10948;48.706;9.258;2024-02-26T11:02:31;96098.97;;;12.64;60.83
21574;BME280;10948;48.706;9.258;2024-02-26T11:04:57;96101.44;;;12.66;60.75
21574;BME280;10948;48.706;9.258;2024-02-26T11:07:23;96099.84;;;12.55;61.13
21574;BME280;10948;48.706;9.258;2024-02-26T11:09:50;96101.59;;;12.82;60.78
21574;BME280;10948;48.706;9.258;2024-02-26T11:12:17;96106.22;;;12.97;60.82
21574;BME280;10948;48.706;9.258;2024-02-26T11:14:44;96099.28;;;13.06;60.49
21574;BME280;10948;48.706;9.258;2024-02-26T11:17:10;96105.28;;;13.51;60.16
21574;BME280;10948;48.706;9.258;2024-02-26T11:19:37;96104.44;;;13.85;59.47
21574;BME280;10948;48.706;9.258;2024-02-26T11:22:03;96110.56;;;13.59;59.90
21574;BME280;10948;48.706;9.258;2024-02-26T11:24:28;96107.00;;;13.25;58.54
21574;BME280;10948;48.706;9.258;2024-02-26T11:26:58;96095.22;;;12.94;59.13
21574;BME280;10948;48.706;9.258;2024-02-26T11:29:37;96102.97;;;13.13;59.36
21574;BME280;10948;48.706;9.258;2024-02-26T11:32:04;96099.44;;;13.22;59.24
21574;BME280;10948;48.706;9.258;2024-02-26T11:34:30;96107.31;;;13.57;58.86
21574;BME280;10948;48.706;9.258;2024-02-26T11:36:55;96106.63;;;13.98;58.58
21574;BME280;10948;48.706;9.258;2024-02-26T11:39:21;96110.09;;;14.24;57.72
21574;BME280;10948;48.706;9.258;2024-02-26T11:41:46;96117.47;;;14.03;57.61
21574;BME280;10948;48.706;9.258;2024-02-26T11:44:12;96117.28;;;13.79;57.71
21574;BME280;10948;48.706;9.258;2024-02-26T11:46:41;96116.28;;;13.80;58.03
21574;BME280;10948;48.706;9.258;2024-02-26T11:51:51;96108.03;;;13.49;57.39
21574;BME280;10948;48.706;9.258;2024-02-26T11:57:01;96105.41;;;13.67;56.94
21574;BME280;10948;48.706;9.258;2024-02-26T11:59:39;96103.28;;;13.88;56.95
21574;BME280;10948;48.706;9.258;2024-02-26T12:02:05;96112.53;;;14.00;55.85
21574;BME280;10948;48.706;9.258;2024-02-26T12:04:32;96109.16;;;14.33;55.28
21574;BME280;10948;48.706;9.258;2024-02-26T12:06:58;96106.97;;;14.54;54.71
21574;BME280;10948;48.706;9.258;2024-02-26T12:09:35;96112.56;;;14.92;54.12
21574;BME280;10948;48.706;9.258;2024-02-26T12:12:01;96105.81;;;15.47;53.70
21574;BME280;10948;48.706;9.258;2024-02-26T12:14:27;96122.38;;;15.72;53.24
21574;BME280;10948;48.706;9.258;2024-02-26T12:16:52;96117.44;;;15.61;52.20
21574;BME280;10948;48.706;9.258;2024-02-26T12:19:18;96124.69;;;15.83;52.18
21574;BME280;10948;48.706;9.258;2024-02-26T12:21:43;96133.22;;;16.09;52.09
21574;BME280;10948;48.706;9.258;2024-02-26T12:24:10;96130.41;;;15.94;50.88
21574;BME280;10948;48.706;9.258;2024-02-26T12:26:36;96121.69;;;15.46;51.51
21574;BME280;10948;48.706;9.258;2024-02-26T12:29:01;96127.66;;;15.14;52.21
21574;BME280;10948;48.706;9.258;2024-02-26T12:31:26;96131.63;;;14.69;53.36
21574;BME280;10948;48.706;9.258;2024-02-26T12:33:53;96128.13;;;14.35;53.40
21574;BME280;10948;48.706;9.258;2024-02-26T12:36:19;96130.91;;;14.59;53.75
21574;BME280;10948;48.706;9.258;2024-02-26T12:38:44;96129.69;;;14.79;54.16
21574;BME280;10948;48.706;9.258;2024-02-26T12:41:09;96128.66;;;14.72;53.40
21574;BME280;10948;48.706;9.258;2024-02-26T12:43:35;96133.13;;;14.79;53.06
21574;BME280;10948;48.706;9.258;2024-02-26T12:46:02;96121.09;;;15.10;52.88
21574;BME280;10948;48.706;9.258;2024-02-26T12:48:28;96126.69;;;15.07;52.25
21574;BME280;10948;48.706;9.258;2024-02-26T12:50:53;96131.31;;;15.29;53.22
21574;BME280;10948;48.706;9.258;2024-02-26T12:53:19;96130.81;;;15.26;53.47
21574;BME280;10948;48.706;9.258;2024-02-26T12:55:44;96124.25;;;15.22;52.85
21574;BME280;10948;48.706;9.258;2024-02-26T12:58:10;96138.03;;;15.24;52.87
21574;BME280;10948;48.706;9.258;2024-02-26T13:00:37;96138.47;;;15.11;53.09
21574;BME280;10948;48.706;9.258;2024-02-26T13:03:03;96131.69;;;14.93;52.94